Flight Track Log - Related Links

Times and Time Zones

All times are in EDT time to prevent confusion due to time zone crossing. See the DAL1118 flight status page for this flight to view local times or setup timezone preferences in your user account.

Time Position Orientation Groundspeed Altitude Reporting Facility
EDT Latitude Longitude Course Direction KTS MPH feet Rate Location/Type
Mon 10:23:57 PM 40.8100 -111.9639 37° Northeast 168 193 5,100  Level Salt Lake Center
Mon 10:24:40 PM 40.8475 -111.9683 355° North 182 209 6,300 1,631 Climbing Salt Lake Center
Mon 10:25:40 PM 40.9142 -111.9794 353° North 250 288 7,900 1,946 Climbing Salt Lake Center
Mon 10:27:00 PM 41.1657 -111.8681 48° Northeast  Level FlightAware Approximate
Mon 10:27:08 PM 41.0203 -111.9989 352° North 298 343 11,100  Level Salt Lake Center
Mon 10:28:00 PM 41.2567 -111.7926 24° Northeast  Level FlightAware Approximate
Mon 10:28:09 PM 41.1103 -111.9753 11° North 354 407 13,000  Level Salt Lake Center
Mon 10:29:00 PM 41.3483 -111.7184 37° Northeast  Level FlightAware Approximate
Mon 10:29:11 PM 41.1828 -111.8750 46° Northeast 368 423 15,800  Level Salt Lake Center
Mon 10:30:13 PM 41.2700 -111.7942 35° Northeast 386 444 18,500 2,439 Climbing Salt Lake Center
Mon 10:31:14 PM 41.3714 -111.7414 21° North 393 452 20,800 1,951 Climbing Salt Lake Center
Mon 10:32:16 PM 41.4800 -111.6942 18° North 411 473 22,500 1,839 Climbing Salt Lake Center
Mon 10:33:18 PM 41.6189 -111.6333 18° North 438 504 24,600 1,854 Climbing Salt Lake Center
Mon 10:34:19 PM 41.7369 -111.5828 18° North 445 512 26,300 1,366 Climbing Salt Lake Center
Mon 10:35:21 PM 41.8597 -111.5300 18° North 461 531 27,400 1,024 Climbing Salt Lake Center
Mon 10:36:22 PM 41.9875 -111.4733 18° North 480 552 28,400 1,073 Climbing Salt Lake Center
Mon 10:37:24 PM 42.1211 -111.4144 18° North 502 578 29,600 1,065 Climbing Salt Lake Center
Mon 10:38:26 PM 42.2561 -111.3544 18° North 510 587 30,600 683 Climbing Salt Lake Center
Mon 10:39:27 PM 42.3928 -111.2944 18° North 517 595 31,000 195 Climbing Salt Lake Center
Mon 10:40:29 PM 42.5297 -111.2331 18° North 517 595 31,000  Level Salt Lake Center
Mon 10:41:31 PM 42.6867 -111.1642 18° North 498 573 31,000 -293 Level Salt Lake Center
Mon 10:42:32 PM 42.8269 -111.0978 19° North 506 582 30,400 -1,122 Descending Salt Lake Center
Mon 10:43:34 PM 42.9550 -111.0411 18° North 505 581 28,700 -2,032 Descending Salt Lake Center
Mon 10:44:36 PM 43.0786 -110.9836 19° North 494 568 26,200 -2,780 Descending Salt Lake Center
Mon 10:45:37 PM 43.2147 -110.9211 19° North 464 534 23,000 -2,829 Descending Salt Lake Center
Mon 10:46:39 PM 43.3258 -110.8606 22° Northeast 452 520 20,400 -3,290 Descending Salt Lake Center
Mon 10:47:41 PM 43.4275 -110.7783 30° Northeast 428 493 16,200 -3,659 Descending Salt Lake Center
Mon 10:48:42 PM 43.5236 -110.7067 28° Northeast 405 466 12,900 -1,951 Descending Salt Lake Center
Mon 10:49:44 PM 43.6081 -110.6356 31° Northeast 307 353 12,200 -1,694 Descending Salt Lake Center
Mon 10:50:46 PM 43.6719 -110.6294 North 272 313 9,400 -2,293 Descending Salt Lake Center
Mon 10:51:47 PM 43.6675 -110.6950 265° West 226 260 7,500 -1,317 Descending Salt Lake Center
Mon 10:52:49 PM 43.6356 -110.7236 213° Southwest 167 192 6,700 -774 Descending Salt Lake Center

Login

Don't have an account? Register now (free) for customized features, flight alerts, and more!